createdAt,value
2023-03-04T00:07:17.148Z,0.20
2023-03-04T00:09:46.956Z,0.10
2023-03-04T00:12:30.287Z,0.10
2023-03-04T00:18:45.281Z,0.10
2023-03-04T00:21:13.104Z,0.00
2023-03-04T00:27:04.781Z,-0.10
2023-03-04T00:29:49.884Z,-0.10
2023-03-04T00:32:23.774Z,-0.10
2023-03-04T00:34:50.643Z,-0.10
2023-03-04T00:37:53.405Z,-0.10
2023-03-04T00:40:26.109Z,-0.10
2023-03-04T00:43:10.309Z,-0.10
2023-03-04T00:46:05.079Z,-0.10
2023-03-04T00:48:53.029Z,-0.10
2023-03-04T00:51:22.736Z,-0.10
2023-03-04T00:53:49.442Z,-0.20
2023-03-04T00:56:16.089Z,-0.20
2023-03-04T00:58:42.694Z,-0.20
2023-03-04T01:01:09.329Z,-0.20
2023-03-04T01:03:41.458Z,-0.20
2023-03-04T01:06:20.343Z,-0.20
2023-03-04T01:08:47.102Z,-0.20
2023-03-04T01:11:14.948Z,-0.20
2023-03-04T01:13:41.715Z,-0.20
2023-03-04T01:16:10.996Z,-0.20
2023-03-04T01:18:55.015Z,-0.30
2023-03-04T01:24:13.181Z,-0.30
2023-03-04T01:26:46.107Z,-0.40
2023-03-04T01:29:12.875Z,-0.40
2023-03-04T01:31:39.526Z,-0.50
2023-03-04T01:34:06.267Z,-0.60
2023-03-04T01:36:32.908Z,-0.50
2023-03-04T01:38:59.594Z,-0.50
2023-03-04T01:41:26.904Z,-0.60
2023-03-04T01:43:55.854Z,-0.60
2023-03-04T01:46:23.093Z,-0.50
2023-03-04T01:48:50.000Z,-0.40
2023-03-04T01:51:17.844Z,-0.40
2023-03-04T01:53:46.140Z,-0.30
2023-03-04T01:56:12.861Z,-0.20
2023-03-04T01:58:39.535Z,-0.20
2023-03-04T02:01:06.176Z,-0.10
2023-03-04T02:03:32.964Z,-0.10
2023-03-04T02:05:59.663Z,0.00
2023-03-04T02:08:26.319Z,0.00
2023-03-04T02:10:53.504Z,0.00
2023-03-04T02:13:20.201Z,0.00
2023-03-04T02:15:47.160Z,-0.10
2023-03-04T02:18:18.327Z,-0.10
2023-03-04T02:20:45.050Z,-0.20
2023-03-04T02:23:15.595Z,-0.20
2023-03-04T02:25:47.480Z,-0.30
2023-03-04T02:28:14.158Z,-0.30
2023-03-04T02:30:40.887Z,-0.30
2023-03-04T02:33:10.615Z,-0.30
2023-03-04T02:35:37.315Z,-0.30
2023-03-04T02:38:04.000Z,-0.30
2023-03-04T02:40:33.208Z,-0.40
2023-03-04T02:43:00.869Z,-0.40
2023-03-04T02:45:38.602Z,-0.30
2023-03-04T02:48:05.600Z,-0.30
2023-03-04T02:50:34.466Z,-0.30
2023-03-04T02:53:02.720Z,-0.30
2023-03-04T02:55:29.653Z,-0.50
2023-03-04T02:57:56.326Z,-0.50
2023-03-04T03:00:23.261Z,-0.50
2023-03-04T03:02:50.034Z,-0.50
2023-03-04T03:05:17.254Z,-0.50
2023-03-04T03:07:43.902Z,-0.50
2023-03-04T03:10:12.247Z,-0.50
2023-03-04T03:12:38.964Z,-0.50
2023-03-04T03:15:05.911Z,-0.60
2023-03-04T03:17:32.587Z,-0.60
2023-03-04T03:19:59.301Z,-0.60
2023-03-04T03:22:25.964Z,-0.60
2023-03-04T03:24:52.597Z,-0.70
2023-03-04T03:27:27.424Z,-0.70
2023-03-04T03:29:55.259Z,-0.70
2023-03-04T03:32:22.052Z,-0.70
2023-03-04T03:34:48.717Z,-0.70
2023-03-04T03:37:15.557Z,-0.80
2023-03-04T03:39:42.233Z,-0.80
2023-03-04T03:42:09.044Z,-0.80
2023-03-04T03:44:37.738Z,-0.80
2023-03-04T03:47:04.582Z,-0.80
2023-03-04T03:49:31.187Z,-0.80
2023-03-04T03:51:57.831Z,-0.90
2023-03-04T03:54:24.485Z,-0.90
2023-03-04T03:56:51.120Z,-0.90
2023-03-04T03:59:17.828Z,-0.90
2023-03-04T04:01:44.453Z,-0.90
2023-03-04T04:04:11.270Z,-0.90
2023-03-04T04:06:37.901Z,-0.90
2023-03-04T04:09:04.588Z,-0.90
2023-03-04T04:11:31.205Z,-0.90
2023-03-04T04:13:57.902Z,-0.80
2023-03-04T04:16:24.608Z,-0.90
2023-03-04T04:18:56.409Z,-0.90
2023-03-04T04:21:24.294Z,-0.90
2023-03-04T04:23:50.931Z,-0.90
2023-03-04T04:26:17.552Z,-0.80
2023-03-04T04:28:44.209Z,-0.80
2023-03-04T04:31:10.977Z,-0.80
2023-03-04T04:33:37.799Z,-0.70
2023-03-04T04:36:05.072Z,-0.60
2023-03-04T04:38:31.907Z,-0.60
2023-03-04T04:40:59.515Z,-0.50
2023-03-04T04:43:26.217Z,-0.50
2023-03-04T04:45:52.911Z,-0.50
2023-03-04T04:48:19.591Z,-0.50
2023-03-04T04:50:46.187Z,-0.40
2023-03-04T04:53:13.445Z,-0.30
2023-03-04T04:55:40.097Z,-0.30
2023-03-04T04:58:07.494Z,-0.30
2023-03-04T05:00:34.251Z,-0.20
2023-03-04T05:03:00.920Z,-0.10
2023-03-04T05:05:27.594Z,-0.10
2023-03-04T05:07:54.262Z,-0.10
2023-03-04T05:10:20.892Z,-0.10
2023-03-04T05:12:47.511Z,0.00
2023-03-04T05:15:14.135Z,-0.10
2023-03-04T05:17:40.759Z,-0.10
2023-03-04T05:20:08.841Z,-0.10
2023-03-04T05:22:35.482Z,0.00
2023-03-04T05:25:02.288Z,0.00
2023-03-04T05:27:28.887Z,0.00
2023-03-04T05:29:59.745Z,0.00
2023-03-04T05:32:26.577Z,0.10
2023-03-04T05:34:53.184Z,0.10
2023-03-04T05:37:19.873Z,0.10
2023-03-04T05:39:46.514Z,0.20
2023-03-04T05:42:13.108Z,0.20
2023-03-04T05:44:39.769Z,0.10
2023-03-04T05:47:06.350Z,0.10
2023-03-04T05:49:32.979Z,0.20
2023-03-04T05:51:59.565Z,0.20
2023-03-04T05:54:26.187Z,0.20
2023-03-04T05:56:53.001Z,0.30
2023-03-04T05:59:20.763Z,0.30
2023-03-04T06:01:47.776Z,0.30
2023-03-04T06:04:14.514Z,0.30
2023-03-04T06:06:41.230Z,0.30
2023-03-04T06:09:07.890Z,0.40
2023-03-04T06:11:36.308Z,0.50
2023-03-04T06:14:03.637Z,0.50
2023-03-04T06:16:30.347Z,0.60
2023-03-04T06:18:56.960Z,0.70
2023-03-04T06:21:23.683Z,0.70
2023-03-04T06:23:50.300Z,0.80
2023-03-04T06:26:16.903Z,0.90
2023-03-04T06:28:44.002Z,0.90
2023-03-04T06:31:11.030Z,0.90
2023-03-04T06:33:37.682Z,0.90
2023-03-04T06:36:04.497Z,1.00
2023-03-04T06:38:31.205Z,1.10
2023-03-04T06:41:05.436Z,1.10
2023-03-04T06:43:32.046Z,1.10
2023-03-04T06:45:58.709Z,1.10
2023-03-04T06:48:25.403Z,1.10
2023-03-04T06:50:52.000Z,1.20
2023-03-04T06:53:18.629Z,1.20
2023-03-04T06:55:45.341Z,1.20
2023-03-04T06:58:11.969Z,1.30
2023-03-04T07:00:38.668Z,1.30
2023-03-04T07:03:05.325Z,1.40
2023-03-04T07:05:31.929Z,1.40
2023-03-04T07:07:58.566Z,1.40
2023-03-04T07:10:25.200Z,1.50
2023-03-04T07:12:51.898Z,1.50
2023-03-04T07:15:18.567Z,1.50
2023-03-04T07:17:45.179Z,1.50
2023-03-04T07:20:11.978Z,1.60
2023-03-04T07:22:38.614Z,1.60
2023-03-04T07:25:05.718Z,1.70
2023-03-04T07:27:32.381Z,1.70
2023-03-04T07:29:59.078Z,1.70
2023-03-04T07:32:25.790Z,1.80
2023-03-04T07:34:52.473Z,1.90
2023-03-04T07:37:19.142Z,1.90
2023-03-04T07:39:45.765Z,1.90
2023-03-04T07:42:12.516Z,1.90
2023-03-04T07:48:10.845Z,2.10
2023-03-04T07:50:41.171Z,2.10
2023-03-04T07:53:07.887Z,2.10
2023-03-04T07:55:34.691Z,2.10
2023-03-04T07:58:01.548Z,2.20
2023-03-04T08:00:28.346Z,2.30
2023-03-04T08:02:55.061Z,2.30
2023-03-04T08:05:21.694Z,2.30
2023-03-04T08:07:48.324Z,2.40
2023-03-04T08:10:14.897Z,2.40
2023-03-04T08:12:41.574Z,2.50
2023-03-04T08:15:08.598Z,2.60
2023-03-04T08:17:35.338Z,2.50
2023-03-04T08:20:01.978Z,2.60
2023-03-04T08:22:28.567Z,2.60
2023-03-04T08:24:55.223Z,2.70
2023-03-04T08:27:21.895Z,2.80
2023-03-04T08:29:48.548Z,2.80
2023-03-04T08:32:15.512Z,2.90
2023-03-04T08:34:42.159Z,2.90
2023-03-04T08:37:08.849Z,3.00
2023-03-04T08:39:36.371Z,3.00
2023-03-04T08:42:06.208Z,3.00
2023-03-04T08:44:32.809Z,3.10
2023-03-04T08:46:59.392Z,3.10
2023-03-04T08:49:26.056Z,3.20
2023-03-04T08:51:52.717Z,3.20
2023-03-04T08:54:19.384Z,3.30
2023-03-04T08:56:46.038Z,3.40
2023-03-04T08:59:12.717Z,3.40
2023-03-04T09:01:39.443Z,3.50
2023-03-04T09:04:06.168Z,3.60
2023-03-04T09:06:32.832Z,3.70
2023-03-04T09:08:59.463Z,3.80
2023-03-04T09:11:26.077Z,3.90
2023-03-04T09:13:53.485Z,4.00
2023-03-04T09:16:21.279Z,4.10
2023-03-04T09:18:48.214Z,4.20
2023-03-04T09:21:15.079Z,4.30
2023-03-04T09:23:41.899Z,4.20
2023-03-04T09:26:21.016Z,4.30
2023-03-04T09:28:50.710Z,4.30
2023-03-04T09:31:17.331Z,4.30
2023-03-04T09:33:44.101Z,4.40
2023-03-04T09:36:11.449Z,4.50
2023-03-04T09:38:38.723Z,4.60
2023-03-04T09:41:07.859Z,4.70
2023-03-04T09:43:35.298Z,4.80
2023-03-04T09:46:04.595Z,4.90
2023-03-04T09:48:39.318Z,4.90
2023-03-04T09:51:41.607Z,5.00
2023-03-04T09:54:09.838Z,5.20
2023-03-04T09:56:42.012Z,5.40
2023-03-04T09:59:25.660Z,5.60
2023-03-04T10:01:53.841Z,5.70
2023-03-04T10:04:55.999Z,5.80
2023-03-04T10:07:31.535Z,5.70
2023-03-04T10:10:06.837Z,5.80
2023-03-04T10:12:37.749Z,5.80
2023-03-04T10:15:06.618Z,5.70
2023-03-04T10:17:44.373Z,5.50
2023-03-04T10:20:20.400Z,5.50
2023-03-04T10:22:48.273Z,5.50
2023-03-04T10:25:23.040Z,5.40
2023-03-04T10:27:49.758Z,5.50
2023-03-04T10:30:36.676Z,5.50
2023-03-04T10:33:09.651Z,5.50
2023-03-04T10:35:37.149Z,5.50
2023-03-04T10:38:04.431Z,5.60
2023-03-04T10:40:36.703Z,5.60
2023-03-04T10:43:08.053Z,5.70
2023-03-04T10:45:38.450Z,5.90
2023-03-04T10:48:05.618Z,6.00
2023-03-04T10:50:32.804Z,6.20
2023-03-04T10:52:59.504Z,6.40
2023-03-04T10:55:29.733Z,6.70
2023-03-04T10:58:06.273Z,6.70
2023-03-04T11:00:34.130Z,6.70
2023-03-04T11:03:19.193Z,6.70
2023-03-04T11:05:45.800Z,6.80
2023-03-04T11:08:19.831Z,7.00
2023-03-04T11:10:46.507Z,7.20
2023-03-04T11:13:17.868Z,7.50
2023-03-04T11:19:14.644Z,7.70
2023-03-04T11:21:41.425Z,7.60
2023-03-04T11:24:25.757Z,7.60
2023-03-04T11:30:25.225Z,7.60
2023-03-04T11:32:53.518Z,7.50
2023-03-04T11:35:34.126Z,7.60
2023-03-04T11:38:21.606Z,7.60
2023-03-04T11:41:04.488Z,7.80
2023-03-04T11:43:35.324Z,7.80
2023-03-04T11:46:21.627Z,7.70
2023-03-04T11:49:13.029Z,7.70
2023-03-04T11:52:05.868Z,7.80
2023-03-04T11:54:35.794Z,7.80
2023-03-04T11:57:17.776Z,7.90
2023-03-04T11:59:52.864Z,7.90
2023-03-04T12:02:37.742Z,7.70
2023-03-04T12:05:30.739Z,7.80
2023-03-04T12:08:08.436Z,7.80
2023-03-04T12:10:41.526Z,7.80
2023-03-04T12:13:11.431Z,7.80
2023-03-04T12:15:44.260Z,7.90
2023-03-04T12:18:20.598Z,8.00
2023-03-04T12:21:00.092Z,7.90
2023-03-04T12:23:46.724Z,7.90
2023-03-04T12:29:26.051Z,8.10
2023-03-04T12:32:05.081Z,8.20
2023-03-04T12:34:31.898Z,8.40
2023-03-04T12:37:05.301Z,8.40
2023-03-04T12:39:40.296Z,8.40
2023-03-04T12:42:18.316Z,8.50
2023-03-04T12:44:56.999Z,8.60
2023-03-04T12:47:23.607Z,8.70
2023-03-04T12:50:10.456Z,8.80
2023-03-04T12:53:00.461Z,8.90
2023-03-04T12:55:32.279Z,8.90
2023-03-04T12:57:59.317Z,8.90
2023-03-04T13:00:35.213Z,8.80
2023-03-04T13:03:15.729Z,8.80
2023-03-04T13:06:03.816Z,8.80
2023-03-04T13:08:38.773Z,8.80
2023-03-04T13:11:24.220Z,9.00
2023-03-04T13:14:09.614Z,9.00
2023-03-04T13:16:40.875Z,9.00
2023-03-04T13:19:28.937Z,9.20
2023-03-04T13:21:55.637Z,9.20
2023-03-04T13:24:41.274Z,9.10
2023-03-04T13:27:26.724Z,9.00
2023-03-04T13:29:53.550Z,9.10
2023-03-04T13:32:36.860Z,9.40
2023-03-04T13:35:23.482Z,9.40
2023-03-04T13:37:58.361Z,9.50
2023-03-04T13:40:32.753Z,9.40
2023-03-04T13:43:23.013Z,9.70
2023-03-04T13:45:49.616Z,9.50
2023-03-04T13:48:36.500Z,9.40
2023-03-04T13:51:03.536Z,9.20
2023-03-04T13:53:33.331Z,9.60
2023-03-04T13:56:14.261Z,9.60
2023-03-04T13:58:41.391Z,9.50
2023-03-04T14:01:22.029Z,9.60
2023-03-04T14:03:48.799Z,9.70
2023-03-04T14:06:23.630Z,9.70
2023-03-04T14:08:51.376Z,9.80
2023-03-04T14:11:39.625Z,9.90
2023-03-04T14:14:07.259Z,9.90
2023-03-04T14:16:37.990Z,9.90
2023-03-04T14:19:06.639Z,9.80
2023-03-04T14:21:34.903Z,9.80
2023-03-04T14:24:06.880Z,9.70
2023-03-04T14:26:39.887Z,9.70
2023-03-04T14:29:20.060Z,9.70
2023-03-04T14:31:53.826Z,9.80
2023-03-04T14:34:40.887Z,9.80
2023-03-04T14:37:27.254Z,10.00
2023-03-04T14:39:58.695Z,10.00
2023-03-04T14:42:27.308Z,10.10
2023-03-04T14:44:55.974Z,10.00
2023-03-04T14:47:40.231Z,10.10
2023-03-04T14:50:08.193Z,10.30
2023-03-04T14:52:36.577Z,10.10
2023-03-04T14:55:15.539Z,10.00
2023-03-04T14:57:43.170Z,10.00
2023-03-04T15:00:17.613Z,9.80
2023-03-04T15:02:44.277Z,9.80
2023-03-04T15:05:17.680Z,9.70
2023-03-04T15:07:49.976Z,9.70
2023-03-04T15:10:20.339Z,9.70
2023-03-04T15:12:50.835Z,9.60
2023-03-04T15:15:35.906Z,9.60
2023-03-04T15:18:21.412Z,9.50
2023-03-04T15:20:54.268Z,9.50
2023-03-04T15:23:20.963Z,9.40
2023-03-04T15:25:50.788Z,9.20
2023-03-04T15:28:18.258Z,9.20
2023-03-04T15:30:45.599Z,9.00
2023-03-04T15:33:13.096Z,8.90
2023-03-04T15:35:41.031Z,8.80
2023-03-04T15:38:08.479Z,8.90
2023-03-04T15:40:44.192Z,9.10
2023-03-04T15:43:13.409Z,8.90
2023-03-04T15:45:41.239Z,8.70
2023-03-04T15:48:10.111Z,8.70
2023-03-04T15:50:38.278Z,8.70
2023-03-04T15:53:07.973Z,8.50
2023-03-04T15:55:35.257Z,8.40
2023-03-04T15:58:02.422Z,8.20
2023-03-04T16:00:29.140Z,8.10
2023-03-04T16:02:55.987Z,8.00
2023-03-04T16:05:22.744Z,7.80
2023-03-04T16:07:50.501Z,7.70
2023-03-04T16:10:22.058Z,7.60
2023-03-04T16:12:48.845Z,7.30
2023-03-04T16:15:17.152Z,7.10
2023-03-04T16:17:45.044Z,7.10
2023-03-04T16:20:12.805Z,7.00
2023-03-04T16:22:40.495Z,6.80
2023-03-04T16:25:09.382Z,6.50
2023-03-04T16:27:36.211Z,6.50
2023-03-04T16:30:05.854Z,6.60
2023-03-04T16:32:34.948Z,6.40
2023-03-04T16:35:02.925Z,6.20
2023-03-04T16:37:29.611Z,6.20
2023-03-04T16:39:56.567Z,6.00
2023-03-04T16:42:23.236Z,6.00
2023-03-04T16:44:50.148Z,5.90
2023-03-04T16:47:16.826Z,5.70
2023-03-04T16:49:43.443Z,5.60
2023-03-04T16:52:18.790Z,5.50
2023-03-04T16:54:45.574Z,5.30
2023-03-04T16:57:14.129Z,5.30
2023-03-04T16:59:40.829Z,5.20
2023-03-04T17:02:13.126Z,5.20
2023-03-04T17:04:39.781Z,5.20
2023-03-04T17:07:06.462Z,5.00
2023-03-04T17:09:34.169Z,4.80
2023-03-04T17:12:00.962Z,4.70
2023-03-04T17:14:27.584Z,4.80
2023-03-04T17:16:54.226Z,4.70
2023-03-04T17:19:20.826Z,4.70
2023-03-04T17:21:47.475Z,4.60
2023-03-04T17:24:14.242Z,4.60
2023-03-04T17:26:42.655Z,4.50
2023-03-04T17:29:09.611Z,4.40
2023-03-04T17:31:36.553Z,4.30
2023-03-04T17:34:03.348Z,4.40
2023-03-04T17:36:30.036Z,4.50
2023-03-04T17:38:57.102Z,4.40
2023-03-04T17:41:25.062Z,4.40
2023-03-04T17:43:52.240Z,4.30
2023-03-04T17:46:19.990Z,4.30
2023-03-04T17:48:47.108Z,4.30
2023-03-04T17:51:13.803Z,4.30
2023-03-04T17:53:40.977Z,4.20
2023-03-04T17:56:08.644Z,4.10
2023-03-04T17:58:36.147Z,4.10
2023-03-04T18:01:05.697Z,4.10
2023-03-04T18:03:32.587Z,4.10
2023-03-04T18:05:59.254Z,4.00
2023-03-04T18:08:26.265Z,3.90
2023-03-04T18:10:53.221Z,3.80
2023-03-04T18:13:20.664Z,3.80
2023-03-04T18:15:47.480Z,3.80
2023-03-04T18:18:14.130Z,3.50
2023-03-04T18:20:40.972Z,3.40
2023-03-04T18:23:07.975Z,3.50
2023-03-04T18:25:34.694Z,3.60
2023-03-04T18:28:04.235Z,3.50
2023-03-04T18:30:30.948Z,3.50
2023-03-04T18:33:02.650Z,3.50
2023-03-04T18:35:29.461Z,3.40
2023-03-04T18:37:56.208Z,3.40
2023-03-04T18:40:22.861Z,3.50
2023-03-04T18:42:50.611Z,3.40
2023-03-04T18:45:17.577Z,3.50
2023-03-04T18:47:46.939Z,3.40
2023-03-04T18:50:14.129Z,3.30
2023-03-04T18:52:40.852Z,3.20
2023-03-04T18:55:07.667Z,3.30
2023-03-04T18:57:34.439Z,3.20
2023-03-04T19:00:02.995Z,3.20
2023-03-04T19:02:43.485Z,3.20
2023-03-04T19:05:11.692Z,3.10
2023-03-04T19:07:38.502Z,3.10
2023-03-04T19:10:05.656Z,3.10
2023-03-04T19:12:33.894Z,3.00
2023-03-04T19:15:00.911Z,2.90
2023-03-04T19:17:31.846Z,3.00
2023-03-04T19:19:59.026Z,2.90
2023-03-04T19:22:25.693Z,2.90
2023-03-04T19:24:52.399Z,2.80
2023-03-04T19:27:19.031Z,2.80
2023-03-04T19:29:46.884Z,2.60
2023-03-04T19:32:13.701Z,2.50
2023-03-04T19:34:40.454Z,2.50
2023-03-04T19:37:07.088Z,2.50
2023-03-04T19:39:33.771Z,2.60
2023-03-04T19:42:00.398Z,2.60
2023-03-04T19:44:27.170Z,2.50
2023-03-04T19:46:56.564Z,2.40
2023-03-04T19:49:23.401Z,2.40
2023-03-04T19:51:50.182Z,2.40
2023-03-04T19:54:17.045Z,2.30
2023-03-04T19:56:43.730Z,2.20
2023-03-04T19:59:11.030Z,2.20
2023-03-04T20:01:38.240Z,2.10
2023-03-04T20:04:08.646Z,2.20
2023-03-04T20:06:36.324Z,2.30
2023-03-04T20:09:20.945Z,2.20
2023-03-04T20:11:58.414Z,2.20
2023-03-04T20:14:46.311Z,2.30
2023-03-04T20:17:15.074Z,2.30
2023-03-04T20:19:45.473Z,2.30
2023-03-04T20:22:13.395Z,2.20
2023-03-04T20:24:40.162Z,2.20
2023-03-04T20:27:09.232Z,2.20
2023-03-04T20:29:35.969Z,2.20
2023-03-04T20:32:03.664Z,2.30
2023-03-04T20:34:30.436Z,2.20
2023-03-04T20:36:59.934Z,2.10
2023-03-04T20:39:29.475Z,2.00
2023-03-04T20:41:57.286Z,2.10
2023-03-04T20:44:23.940Z,2.20
2023-03-04T20:46:50.799Z,2.10
2023-03-04T20:49:22.212Z,2.10
2023-03-04T20:51:49.308Z,2.10
2023-03-04T20:54:16.020Z,2.20
2023-03-04T20:56:43.731Z,2.10
2023-03-04T20:59:11.466Z,2.10
2023-03-04T21:01:39.699Z,2.10
2023-03-04T21:04:06.499Z,2.00
2023-03-04T21:06:34.301Z,2.00
2023-03-04T21:09:02.285Z,1.90
2023-03-04T21:11:39.556Z,2.20
2023-03-04T21:14:19.218Z,2.10
2023-03-04T21:17:02.889Z,2.00
2023-03-04T21:19:31.118Z,2.00
2023-03-04T21:22:00.355Z,2.00
2023-03-04T21:24:28.637Z,1.90
2023-03-04T21:26:55.445Z,2.00
2023-03-04T21:29:23.786Z,1.90
2023-03-04T21:31:52.396Z,1.90
2023-03-04T21:34:39.258Z,1.90
2023-03-04T21:37:05.930Z,2.00
2023-03-04T21:39:32.747Z,2.00
2023-03-04T21:42:00.039Z,2.00
2023-03-04T21:44:38.566Z,2.00
2023-03-04T21:47:14.736Z,1.90
2023-03-04T21:49:41.359Z,1.90
2023-03-04T21:52:08.003Z,1.90
2023-03-04T21:54:35.720Z,1.90
2023-03-04T21:57:02.511Z,2.00
2023-03-04T21:59:29.181Z,1.90
2023-03-04T22:01:55.814Z,1.90
2023-03-04T22:04:22.501Z,1.90
2023-03-04T22:06:49.185Z,1.90
2023-03-04T22:09:18.225Z,2.00
2023-03-04T22:11:47.972Z,2.00
2023-03-04T22:14:14.622Z,2.10
2023-03-04T22:16:54.552Z,2.10
2023-03-04T22:19:23.225Z,2.00
2023-03-04T22:22:02.183Z,2.00
2023-03-04T22:24:30.985Z,2.00
2023-03-04T22:26:59.875Z,1.90
2023-03-04T23:04:09.858Z,1.80
2023-03-04T23:22:42.120Z,1.80
2023-03-04T23:25:11.162Z,1.80
2023-03-04T23:27:53.652Z,1.90
2023-03-04T23:30:35.893Z,1.90
